sensor_id;sensor_type;location;lat;lon;timestamp;pressure;altitude;pressure_sealevel;temperature;humidity
54270;BME280;40181;51.560;13.000;2023-02-13T00:00:09;102885.84;;;6.42;100.00
54270;BME280;40181;51.560;13.000;2023-02-13T00:02:43;102887.63;;;6.43;100.00
54270;BME280;40181;51.560;13.000;2023-02-13T00:05:12;102888.63;;;6.31;100.00
54270;BME280;40181;51.560;13.000;2023-02-13T00:07:41;102878.69;;;6.39;100.00
54270;BME280;40181;51.560;13.000;2023-02-13T00:10:10;102881.91;;;6.35;100.00
54270;BME280;40181;51.560;13.000;2023-02-13T00:12:39;102876.63;;;6.47;100.00
54270;BME280;40181;51.560;13.000;2023-02-13T00:15:09;102882.03;;;6.36;100.00
54270;BME280;40181;51.560;13.000;2023-02-13T00:17:40;102881.44;;;6.15;100.00
54270;BME280;40181;51.560;13.000;2023-02-13T00:20:10;102871.38;;;6.08;100.00
54270;BME280;40181;51.560;13.000;2023-02-13T00:22:40;102878.88;;;6.03;100.00
54270;BME280;40181;51.560;13.000;2023-02-13T00:25:09;102882.13;;;6.13;100.00
54270;BME280;40181;51.560;13.000;2023-02-13T00:27:39;102877.50;;;6.08;100.00
54270;BME280;40181;51.560;13.000;2023-02-13T00:30:09;102868.59;;;6.18;100.00
54270;BME280;40181;51.560;13.000;2023-02-13T00:32:41;102872.69;;;6.15;100.00
54270;BME280;40181;51.560;13.000;2023-02-13T00:35:10;102874.06;;;6.21;100.00
54270;BME280;40181;51.560;13.000;2023-02-13T00:37:39;102872.69;;;6.15;100.00
54270;BME280;40181;51.560;13.000;2023-02-13T00:40:09;102875.75;;;6.21;100.00
54270;BME280;40181;51.560;13.000;2023-02-13T00:42:39;102871.25;;;6.32;100.00
54270;BME280;40181;51.560;13.000;2023-02-13T00:45:08;102872.38;;;6.35;100.00
54270;BME280;40181;51.560;13.000;2023-02-13T00:47:37;102869.53;;;6.32;100.00
54270;BME280;40181;51.560;13.000;2023-02-13T00:50:09;102880.09;;;6.34;100.00
54270;BME280;40181;51.560;13.000;2023-02-13T00:52:39;102869.28;;;6.41;100.00
54270;BME280;40181;51.560;13.000;2023-02-13T00:55:08;102864.06;;;6.41;100.00
54270;BME280;40181;51.560;13.000;2023-02-13T00:57:37;102864.63;;;6.37;100.00
54270;BME280;40181;51.560;13.000;2023-02-13T01:00:07;102865.81;;;6.29;100.00
54270;BME280;40181;51.560;13.000;2023-02-13T01:02:37;102863.19;;;6.29;100.00
54270;BME280;40181;51.560;13.000;2023-02-13T01:05:08;102868.03;;;6.36;100.00
54270;BME280;40181;51.560;13.000;2023-02-13T01:07:37;102873.06;;;6.33;100.00
54270;BME280;40181;51.560;13.000;2023-02-13T01:10:07;102870.09;;;6.15;100.00
54270;BME280;40181;51.560;13.000;2023-02-13T01:12:36;102879.03;;;6.18;100.00
54270;BME280;40181;51.560;13.000;2023-02-13T01:15:06;102864.88;;;6.15;100.00
54270;BME280;40181;51.560;13.000;2023-02-13T01:17:36;102863.75;;;6.11;100.00
54270;BME280;40181;51.560;13.000;2023-02-13T01:20:09;102868.91;;;6.23;100.00
54270;BME280;40181;51.560;13.000;2023-02-13T01:22:40;102869.50;;;6.19;100.00
54270;BME280;40181;51.560;13.000;2023-02-13T01:25:10;102868.50;;;6.17;100.00
54270;BME280;40181;51.560;13.000;2023-02-13T01:27:39;102874.19;;;6.11;100.00
54270;BME280;40181;51.560;13.000;2023-02-13T01:30:10;102878.41;;;6.09;100.00
54270;BME280;40181;51.560;13.000;2023-02-13T01:32:42;102870.19;;;6.16;100.00
54270;BME280;40181;51.560;13.000;2023-02-13T01:35:15;102862.44;;;6.04;100.00
54270;BME280;40181;51.560;13.000;2023-02-13T01:37:44;102865.19;;;6.19;100.00
54270;BME280;40181;51.560;13.000;2023-02-13T01:40:13;102878.03;;;6.16;100.00
54270;BME280;40181;51.560;13.000;2023-02-13T01:42:43;102862.19;;;6.27;100.00
54270;BME280;40181;51.560;13.000;2023-02-13T01:45:22;102866.84;;;6.05;100.00
54270;BME280;40181;51.560;13.000;2023-02-13T01:47:54;102864.69;;;6.00;100.00
54270;BME280;40181;51.560;13.000;2023-02-13T01:50:33;102856.22;;;6.02;100.00
54270;BME280;40181;51.560;13.000;2023-02-13T01:53:07;102858.59;;;5.99;100.00
54270;BME280;40181;51.560;13.000;2023-02-13T01:55:47;102854.47;;;6.03;100.00
54270;BME280;40181;51.560;13.000;2023-02-13T01:58:22;102860.94;;;5.96;100.00
54270;BME280;40181;51.560;13.000;2023-02-13T02:00:53;102860.50;;;6.02;100.00
54270;BME280;40181;51.560;13.000;2023-02-13T02:03:25;102868.38;;;5.90;100.00
54270;BME280;40181;51.560;13.000;2023-02-13T02:06:00;102850.31;;;6.05;100.00
54270;BME280;40181;51.560;13.000;2023-02-13T02:08:30;102849.41;;;5.92;100.00
54270;BME280;40181;51.560;13.000;2023-02-13T02:11:07;102848.22;;;6.01;100.00
54270;BME280;40181;51.560;13.000;2023-02-13T02:13:38;102855.53;;;5.93;100.00
54270;BME280;40181;51.560;13.000;2023-02-13T02:16:08;102851.31;;;6.07;100.00
54270;BME280;40181;51.560;13.000;2023-02-13T02:18:37;102848.81;;;6.08;100.00
54270;BME280;40181;51.560;13.000;2023-02-13T02:21:40;102850.44;;;6.20;100.00
54270;BME280;40181;51.560;13.000;2023-02-13T02:24:37;102841.09;;;5.98;100.00
54270;BME280;40181;51.560;13.000;2023-02-13T02:28:02;102836.16;;;5.89;100.00
54270;BME280;40181;51.560;13.000;2023-02-13T02:30:51;102839.31;;;5.85;100.00
54270;BME280;40181;51.560;13.000;2023-02-13T02:33:55;102840.66;;;6.04;100.00
54270;BME280;40181;51.560;13.000;2023-02-13T02:36:50;102836.59;;;5.95;100.00
54270;BME280;40181;51.560;13.000;2023-02-13T02:39:34;102837.78;;;6.01;100.00
54270;BME280;40181;51.560;13.000;2023-02-13T02:42:17;102840.25;;;6.11;100.00
54270;BME280;40181;51.560;13.000;2023-02-13T02:44:56;102850.81;;;6.13;100.00
54270;BME280;40181;51.560;13.000;2023-02-13T02:47:35;102854.13;;;6.10;100.00
54270;BME280;40181;51.560;13.000;2023-02-13T02:50:32;102851.50;;;6.10;100.00
54270;BME280;40181;51.560;13.000;2023-02-13T02:53:15;102854.44;;;6.15;100.00
54270;BME280;40181;51.560;13.000;2023-02-13T02:55:51;102847.53;;;6.15;100.00
54270;BME280;40181;51.560;13.000;2023-02-13T02:58:30;102847.94;;;6.21;100.00
54270;BME280;40181;51.560;13.000;2023-02-13T03:01:17;102854.66;;;6.18;100.00
54270;BME280;40181;51.560;13.000;2023-02-13T03:04:02;102854.44;;;6.15;100.00
54270;BME280;40181;51.560;13.000;2023-02-13T03:06:50;102856.72;;;6.10;100.00
54270;BME280;40181;51.560;13.000;2023-02-13T03:09:25;102861.25;;;6.13;100.00
54270;BME280;40181;51.560;13.000;2023-02-13T03:12:08;102850.81;;;6.13;100.00
54270;BME280;40181;51.560;13.000;2023-02-13T03:14:52;102849.16;;;6.01;100.00
54270;BME280;40181;51.560;13.000;2023-02-13T03:17:21;102855.22;;;6.14;100.00
54270;BME280;40181;51.560;13.000;2023-02-13T03:20:12;102866.69;;;6.16;100.00
54270;BME280;40181;51.560;13.000;2023-02-13T03:23:10;102862.00;;;6.23;100.00
54270;BME280;40181;51.560;13.000;2023-02-13T03:25:54;102865.19;;;6.19;100.00
54270;BME280;40181;51.560;13.000;2023-02-13T03:28:46;102858.75;;;6.14;100.00
54270;BME280;40181;51.560;13.000;2023-02-13T03:31:41;102866.97;;;6.07;100.00
54270;BME280;40181;51.560;13.000;2023-02-13T03:34:20;102862.19;;;6.13;100.00
54270;BME280;40181;51.560;13.000;2023-02-13T03:37:14;102867.91;;;6.21;100.00
54270;BME280;40181;51.560;13.000;2023-02-13T03:40:02;102867.47;;;6.15;100.00
54270;BME280;40181;51.560;13.000;2023-02-13T03:42:37;102858.28;;;6.20;100.00
54270;BME280;40181;51.560;13.000;2023-02-13T03:45:13;102864.97;;;6.16;100.00
54270;BME280;40181;51.560;13.000;2023-02-13T03:47:57;102872.31;;;6.22;100.00
54270;BME280;40181;51.560;13.000;2023-02-13T03:50:35;102870.41;;;6.19;100.00
54270;BME280;40181;51.560;13.000;2023-02-13T03:53:07;102867.22;;;6.23;100.00
54270;BME280;40181;51.560;13.000;2023-02-13T03:55:44;102873.00;;;6.19;100.00
54270;BME280;40181;51.560;13.000;2023-02-13T03:58:28;102872.22;;;6.20;100.00
54270;BME280;40181;51.560;13.000;2023-02-13T04:01:15;102865.41;;;6.22;100.00
54270;BME280;40181;51.560;13.000;2023-02-13T04:03:51;102870.41;;;6.19;100.00
54270;BME280;40181;51.560;13.000;2023-02-13T04:06:28;102869.19;;;6.14;100.00
54270;BME280;40181;51.560;13.000;2023-02-13T04:08:59;102862.31;;;6.03;100.00
54270;BME280;40181;51.560;13.000;2023-02-13T04:11:34;102864.69;;;6.25;100.00
54270;BME280;40181;51.560;13.000;2023-02-13T04:14:10;102861.31;;;6.26;100.00
54270;BME280;40181;51.560;13.000;2023-02-13T04:16:45;102855.84;;;6.23;100.00
54270;BME280;40181;51.560;13.000;2023-02-13T04:19:17;102865.47;;;5.99;100.00
54270;BME280;40181;51.560;13.000;2023-02-13T04:21:54;102873.00;;;5.94;100.00
54270;BME280;40181;51.560;13.000;2023-02-13T04:24:25;102862.88;;;5.99;100.00
54270;BME280;40181;51.560;13.000;2023-02-13T04:26:57;102859.03;;;5.93;100.00
54270;BME280;40181;51.560;13.000;2023-02-13T04:29:26;102871.50;;;6.09;100.00
54270;BME280;40181;51.560;13.000;2023-02-13T04:31:55;102869.91;;;6.00;100.00
54270;BME280;40181;51.560;13.000;2023-02-13T04:34:24;102857.97;;;5.78;100.00
54270;BME280;40181;51.560;13.000;2023-02-13T04:36:53;102875.75;;;5.84;100.00
54270;BME280;40181;51.560;13.000;2023-02-13T04:39:22;102865.88;;;5.79;100.00
54270;BME280;40181;51.560;13.000;2023-02-13T04:41:51;102861.41;;;6.02;100.00
54270;BME280;40181;51.560;13.000;2023-02-13T04:44:22;102853.81;;;5.93;100.00
54270;BME280;40181;51.560;13.000;2023-02-13T04:46:51;102864.03;;;5.90;100.00
54270;BME280;40181;51.560;13.000;2023-02-13T04:49:20;102850.19;;;5.91;100.00
54270;BME280;40181;51.560;13.000;2023-02-13T04:51:49;102855.72;;;5.96;100.00
54270;BME280;40181;51.560;13.000;2023-02-13T04:54:21;102850.44;;;5.94;100.00
54270;BME280;40181;51.560;13.000;2023-02-13T04:56:50;102853.72;;;6.04;100.00
54270;BME280;40181;51.560;13.000;2023-02-13T04:59:19;102861.75;;;6.07;100.00
54270;BME280;40181;51.560;13.000;2023-02-13T05:01:51;102861.44;;;5.90;100.00
54270;BME280;40181;51.560;13.000;2023-02-13T05:04:20;102862.19;;;6.01;100.00
54270;BME280;40181;51.560;13.000;2023-02-13T05:06:49;102865.31;;;5.84;100.00
54270;BME280;40181;51.560;13.000;2023-02-13T05:09:18;102857.94;;;5.90;100.00
54270;BME280;40181;51.560;13.000;2023-02-13T05:11:50;102866.84;;;5.93;100.00
54270;BME280;40181;51.560;13.000;2023-02-13T05:14:22;102857.25;;;5.80;100.00
54270;BME280;40181;51.560;13.000;2023-02-13T05:16:51;102854.22;;;5.86;100.00
54270;BME280;40181;51.560;13.000;2023-02-13T05:19:20;102861.31;;;5.89;100.00
54270;BME280;40181;51.560;13.000;2023-02-13T05:21:49;102857.75;;;5.75;100.00
54270;BME280;40181;51.560;13.000;2023-02-13T05:24:31;102864.00;;;5.77;100.00
54270;BME280;40181;51.560;13.000;2023-02-13T05:27:00;102868.25;;;5.88;100.00
54270;BME280;40181;51.560;13.000;2023-02-13T05:29:32;102861.94;;;5.73;100.00
54270;BME280;40181;51.560;13.000;2023-02-13T05:32:01;102860.16;;;5.72;100.00
54270;BME280;40181;51.560;13.000;2023-02-13T05:34:30;102866.63;;;5.65;100.00
54270;BME280;40181;51.560;13.000;2023-02-13T05:36:59;102879.69;;;5.65;100.00
54270;BME280;40181;51.560;13.000;2023-02-13T05:39:28;102866.94;;;5.81;100.00
54270;BME280;40181;51.560;13.000;2023-02-13T05:41:57;102869.66;;;5.71;100.00
54270;BME280;40181;51.560;13.000;2023-02-13T05:44:31;102868.44;;;5.66;100.00
54270;BME280;40181;51.560;13.000;2023-02-13T05:47:00;102866.59;;;5.77;100.00
54270;BME280;40181;51.560;13.000;2023-02-13T05:49:29;102871.56;;;5.86;100.00
54270;BME280;40181;51.560;13.000;2023-02-13T05:51:58;102860.91;;;5.82;100.00
54270;BME280;40181;51.560;13.000;2023-02-13T05:54:27;102855.13;;;5.75;100.00
54270;BME280;40181;51.560;13.000;2023-02-13T05:56:56;102857.25;;;5.80;100.00
54270;BME280;40181;51.560;13.000;2023-02-13T05:59:25;102854.63;;;5.92;100.00
54270;BME280;40181;51.560;13.000;2023-02-13T06:01:57;102856.41;;;5.93;100.00
54270;BME280;40181;51.560;13.000;2023-02-13T06:04:26;102860.53;;;5.52;100.00
54270;BME280;40181;51.560;13.000;2023-02-13T06:06:55;102862.63;;;5.70;100.00
54270;BME280;40181;51.560;13.000;2023-02-13T06:09:24;102860.75;;;5.67;100.00
54270;BME280;40181;51.560;13.000;2023-02-13T06:11:53;102871.72;;;5.63;100.00
54270;BME280;40181;51.560;13.000;2023-02-13T06:14:22;102865.50;;;5.61;100.00
54270;BME280;40181;51.560;13.000;2023-02-13T06:16:51;102855.19;;;5.63;100.00
54270;BME280;40181;51.560;13.000;2023-02-13T06:19:23;102865.16;;;5.68;100.00
54270;BME280;40181;51.560;13.000;2023-02-13T06:21:52;102865.47;;;5.73;100.00
54270;BME280;40181;51.560;13.000;2023-02-13T06:24:21;102875.25;;;5.64;100.00
54270;BME280;40181;51.560;13.000;2023-02-13T06:26:50;102866.72;;;5.66;100.00
54270;BME280;40181;51.560;13.000;2023-02-13T06:29:19;102865.63;;;5.63;100.00
54270;BME280;40181;51.560;13.000;2023-02-13T06:31:48;102863.78;;;5.62;100.00
54270;BME280;40181;51.560;13.000;2023-02-13T06:34:17;102871.19;;;5.67;100.00
54270;BME280;40181;51.560;13.000;2023-02-13T06:36:48;102881.69;;;5.69;100.00
54270;BME280;40181;51.560;13.000;2023-02-13T06:39:17;102877.41;;;5.58;100.00
54270;BME280;40181;51.560;13.000;2023-02-13T06:41:46;102888.66;;;5.57;100.00
54270;BME280;40181;51.560;13.000;2023-02-13T06:44:15;102894.31;;;5.63;100.00
54270;BME280;40181;51.560;13.000;2023-02-13T06:46:44;102896.88;;;5.75;100.00
54270;BME280;40181;51.560;13.000;2023-02-13T06:49:13;102897.69;;;5.62;100.00
54270;BME280;40181;51.560;13.000;2023-02-13T06:51:42;102898.94;;;5.67;100.00
54270;BME280;40181;51.560;13.000;2023-02-13T06:54:14;102907.72;;;5.44;100.00
54270;BME280;40181;51.560;13.000;2023-02-13T06:56:43;102905.63;;;5.63;100.00
54270;BME280;40181;51.560;13.000;2023-02-13T06:59:12;102909.59;;;5.70;100.00
54270;BME280;40181;51.560;13.000;2023-02-13T07:01:41;102909.81;;;5.73;100.00
54270;BME280;40181;51.560;13.000;2023-02-13T07:04:10;102907.56;;;5.66;100.00
54270;BME280;40181;51.560;13.000;2023-02-13T07:06:39;102908.69;;;5.70;100.00
54270;BME280;40181;51.560;13.000;2023-02-13T07:09:08;102905.50;;;5.62;100.00
54270;BME280;40181;51.560;13.000;2023-02-13T07:11:40;102910.94;;;5.77;100.00
54270;BME280;40181;51.560;13.000;2023-02-13T07:14:09;102910.28;;;5.67;100.00
54270;BME280;40181;51.560;13.000;2023-02-13T07:16:38;102901.22;;;5.62;100.00
54270;BME280;40181;51.560;13.000;2023-02-13T07:19:07;102906.88;;;5.68;100.00
54270;BME280;40181;51.560;13.000;2023-02-13T07:21:36;102904.31;;;5.45;100.00
54270;BME280;40181;51.560;13.000;2023-02-13T07:24:06;102906.75;;;5.67;100.00
54270;BME280;40181;51.560;13.000;2023-02-13T07:26:35;102918.69;;;5.63;100.00
54270;BME280;40181;51.560;13.000;2023-02-13T07:29:06;102914.31;;;5.76;100.00
54270;BME280;40181;51.560;13.000;2023-02-13T07:31:35;102908.56;;;5.68;100.00
54270;BME280;40181;51.560;13.000;2023-02-13T07:34:04;102910.28;;;5.67;100.00
54270;BME280;40181;51.560;13.000;2023-02-13T07:36:34;102913.59;;;5.53;100.00
54270;BME280;40181;51.560;13.000;2023-02-13T07:39:02;102917.72;;;5.75;100.00
54270;BME280;40181;51.560;13.000;2023-02-13T07:41:32;102905.47;;;5.86;100.00
54270;BME280;40181;51.560;13.000;2023-02-13T07:44:01;102915.38;;;5.78;100.00
54270;BME280;40181;51.560;13.000;2023-02-13T07:46:32;102925.09;;;5.80;100.00
54270;BME280;40181;51.560;13.000;2023-02-13T07:49:01;102919.19;;;5.83;100.00
54270;BME280;40181;51.560;13.000;2023-02-13T07:51:30;102931.97;;;5.54;100.00
54270;BME280;40181;51.560;13.000;2023-02-13T07:54:00;102933.66;;;5.66;100.00
54270;BME280;40181;51.560;13.000;2023-02-13T07:56:29;102930.25;;;5.55;100.00
54270;BME280;40181;51.560;13.000;2023-02-13T07:58:58;102933.28;;;5.73;100.00
54270;BME280;40181;51.560;13.000;2023-02-13T08:01:28;102935.44;;;5.79;100.00
54270;BME280;40181;51.560;13.000;2023-02-13T08:03:59;102940.38;;;5.88;100.00
54270;BME280;40181;51.560;13.000;2023-02-13T08:06:28;102935.56;;;5.68;100.00
54270;BME280;40181;51.560;13.000;2023-02-13T08:08:57;102934.78;;;5.70;100.00
54270;BME280;40181;51.560;13.000;2023-02-13T08:11:40;102936.47;;;5.69;100.00
54270;BME280;40181;51.560;13.000;2023-02-13T08:14:23;102930.69;;;5.73;100.00
54270;BME280;40181;51.560;13.000;2023-02-13T08:16:53;102931.56;;;5.86;100.00
54270;BME280;40181;51.560;13.000;2023-02-13T08:19:25;102927.59;;;5.79;100.00
54270;BME280;40181;51.560;13.000;2023-02-13T08:21:55;102939.72;;;5.90;100.00
54270;BME280;40181;51.560;13.000;2023-02-13T08:24:24;102928.94;;;5.86;100.00
54270;BME280;40181;51.560;13.000;2023-02-13T08:26:54;102921.81;;;5.71;100.00
54270;BME280;40181;51.560;13.000;2023-02-13T08:29:23;102933.34;;;5.87;100.00
54270;BME280;40181;51.560;13.000;2023-02-13T08:31:52;102926.44;;;5.87;100.00
54270;BME280;40181;51.560;13.000;2023-02-13T08:34:21;102938.56;;;5.87;100.00
54270;BME280;40181;51.560;13.000;2023-02-13T08:36:53;102928.81;;;5.84;100.00
54270;BME280;40181;51.560;13.000;2023-02-13T08:39:22;102924.94;;;6.03;100.00
54270;BME280;40181;51.560;13.000;2023-02-13T08:41:51;102932.66;;;6.01;100.00
54270;BME280;40181;51.560;13.000;2023-02-13T08:44:20;102931.72;;;6.13;100.00
54270;BME280;40181;51.560;13.000;2023-02-13T08:46:49;102926.78;;;6.04;100.00
54270;BME280;40181;51.560;13.000;2023-02-13T08:49:18;102933.81;;;6.05;100.00
54270;BME280;40181;51.560;13.000;2023-02-13T08:51:50;102944.38;;;5.94;100.00
54270;BME280;40181;51.560;13.000;2023-02-13T08:54:19;102937.09;;;6.02;100.00
54270;BME280;40181;51.560;13.000;2023-02-13T08:56:48;102940.56;;;6.15;100.00
54270;BME280;40181;51.560;13.000;2023-02-13T08:59:17;102941.69;;;6.18;100.00
54270;BME280;40181;51.560;13.000;2023-02-13T09:01:46;102945.41;;;6.22;100.00
54270;BME280;40181;51.560;13.000;2023-02-13T09:04:15;102951.28;;;6.31;100.00
54270;BME280;40181;51.560;13.000;2023-02-13T09:06:44;102944.56;;;6.35;100.00
54270;BME280;40181;51.560;13.000;2023-02-13T09:09:16;102956.53;;;6.19;100.00
54270;BME280;40181;51.560;13.000;2023-02-13T09:11:45;102944.28;;;6.18;100.00
54270;BME280;40181;51.560;13.000;2023-02-13T09:14:15;102946.75;;;6.29;100.00
54270;BME280;40181;51.560;13.000;2023-02-13T09:16:44;102949.50;;;6.18;100.00
54270;BME280;40181;51.560;13.000;2023-02-13T09:19:14;102950.19;;;6.16;100.00
54270;BME280;40181;51.560;13.000;2023-02-13T09:21:43;102956.56;;;6.07;100.00
54270;BME280;40181;51.560;13.000;2023-02-13T09:24:12;102953.94;;;6.19;100.00
54270;BME280;40181;51.560;13.000;2023-02-13T09:26:43;102946.91;;;6.18;100.00
54270;BME280;40181;51.560;13.000;2023-02-13T09:29:12;102948.94;;;6.22;100.00
54270;BME280;40181;51.560;13.000;2023-02-13T09:31:41;102947.34;;;6.25;100.00
54270;BME280;40181;51.560;13.000;2023-02-13T09:34:10;102951.00;;;6.15;100.00
54270;BME280;40181;51.560;13.000;2023-02-13T09:36:39;102946.41;;;6.24;100.00
54270;BME280;40181;51.560;13.000;2023-02-13T09:39:08;102954.25;;;6.24;100.00
54270;BME280;40181;51.560;13.000;2023-02-13T09:41:41;102956.28;;;6.28;100.00
54270;BME280;40181;51.560;13.000;2023-02-13T09:44:13;102963.00;;;6.25;100.00
54270;BME280;40181;51.560;13.000;2023-02-13T09:46:58;102955.38;;;6.28;100.00
54270;BME280;40181;51.560;13.000;2023-02-13T09:49:32;102961.16;;;6.35;100.00
54270;BME280;40181;51.560;13.000;2023-02-13T09:52:03;102949.25;;;6.27;100.00
54270;BME280;40181;51.560;13.000;2023-02-13T09:54:32;102953.69;;;6.28;100.00
54270;BME280;40181;51.560;13.000;2023-02-13T09:57:07;102956.50;;;6.31;100.00
54270;BME280;40181;51.560;13.000;2023-02-13T09:59:52;102946.56;;;6.39;100.00
54270;BME280;40181;51.560;13.000;2023-02-13T10:02:39;102940.19;;;6.47;100.00
54270;BME280;40181;51.560;13.000;2023-02-13T10:05:39;102951.88;;;6.27;100.00
54270;BME280;40181;51.560;13.000;2023-02-13T10:08:22;102951.28;;;6.31;100.00
54270;BME280;40181;51.560;13.000;2023-02-13T10:11:03;102947.78;;;6.31;100.00
54270;BME280;40181;51.560;13.000;2023-02-13T10:13:52;102952.41;;;6.35;100.00
54270;BME280;40181;51.560;13.000;2023-02-13T10:16:31;102956.44;;;6.43;100.00
54270;BME280;40181;51.560;13.000;2023-02-13T10:19:14;102947.19;;;6.35;100.00
54270;BME280;40181;51.560;13.000;2023-02-13T10:21:51;102941.78;;;6.45;100.00
54270;BME280;40181;51.560;13.000;2023-02-13T10:24:29;102942.47;;;6.43;100.00
54270;BME280;40181;51.560;13.000;2023-02-13T10:27:05;102948.63;;;6.43;100.00
54270;BME280;40181;51.560;13.000;2023-02-13T10:29:50;102944.31;;;6.44;100.00
54270;BME280;40181;51.560;13.000;2023-02-13T10:32:42;102942.41;;;6.55;100.00
54270;BME280;40181;51.560;13.000;2023-02-13T10:35:20;102939.97;;;6.44;100.00
54270;BME280;40181;51.560;13.000;2023-02-13T10:37:54;102943.59;;;6.46;100.00
54270;BME280;40181;51.560;13.000;2023-02-13T10:40:30;102930.66;;;6.48;100.00
54270;BME280;40181;51.560;13.000;2023-02-13T10:43:07;102932.59;;;6.64;100.00
54270;BME280;40181;51.560;13.000;2023-02-13T10:45:50;102922.25;;;6.66;100.00
54270;BME280;40181;51.560;13.000;2023-02-13T10:48:42;102927.69;;;6.69;100.00
54270;BME280;40181;51.560;13.000;2023-02-13T10:51:24;102924.75;;;6.50;100.00
54270;BME280;40181;51.560;13.000;2023-02-13T10:54:20;102912.06;;;6.57;100.00
54270;BME280;40181;51.560;13.000;2023-02-13T10:57:00;102920.84;;;6.71;100.00
54270;BME280;40181;51.560;13.000;2023-02-13T10:59:44;102913.00;;;6.57;100.00
54270;BME280;40181;51.560;13.000;2023-02-13T11:02:26;102909.69;;;6.73;100.00
54270;BME280;40181;51.560;13.000;2023-02-13T11:04:59;102901.47;;;6.67;100.00
54270;BME280;40181;51.560;13.000;2023-02-13T11:07:29;102901.25;;;6.64;100.00
54270;BME280;40181;51.560;13.000;2023-02-13T11:10:04;102895.44;;;6.68;100.00
54270;BME280;40181;51.560;13.000;2023-02-13T11:12:40;102891.53;;;6.75;100.00
54270;BME280;40181;51.560;13.000;2023-02-13T11:15:20;102887.94;;;6.47;100.00
54270;BME280;40181;51.560;13.000;2023-02-13T11:17:55;102891.09;;;6.55;100.00
54270;BME280;40181;51.560;13.000;2023-02-13T11:20:32;102886.28;;;6.61;100.00
54270;BME280;40181;51.560;13.000;2023-02-13T11:23:17;102891.66;;;6.76;100.00
54270;BME280;40181;51.560;13.000;2023-02-13T11:25:59;102890.84;;;6.77;100.00
54270;BME280;40181;51.560;13.000;2023-02-13T11:28:36;102886.50;;;6.78;100.00
54270;BME280;40181;51.560;13.000;2023-02-13T11:31:13;102886.41;;;6.76;100.00
54270;BME280;40181;51.560;13.000;2023-02-13T11:33:49;102894.72;;;6.71;100.00
54270;BME280;40181;51.560;13.000;2023-02-13T11:36:24;102895.63;;;6.71;100.00
54270;BME280;40181;51.560;13.000;2023-02-13T11:39:02;102887.72;;;6.83;100.00
54270;BME280;40181;51.560;13.000;2023-02-13T11:41:38;102883.88;;;6.78;100.00
54270;BME280;40181;51.560;13.000;2023-02-13T11:44:20;102893.53;;;6.66;100.00
54270;BME280;40181;51.560;13.000;2023-02-13T11:46:52;102902.88;;;6.62;100.00
54270;BME280;40181;51.560;13.000;2023-02-13T11:49:27;102894.75;;;6.84;100.00
54270;BME280;40181;51.560;13.000;2023-02-13T11:51:59;102891.22;;;6.84;100.00
54270;BME280;40181;51.560;13.000;2023-02-13T11:54:32;102890.84;;;6.77;100.00
54270;BME280;40181;51.560;13.000;2023-02-13T11:57:18;102896.88;;;6.90;100.00
54270;BME280;40181;51.560;13.000;2023-02-13T11:59:50;102892.13;;;6.84;100.00
54270;BME280;40181;51.560;13.000;2023-02-13T12:02:22;102893.75;;;6.82;100.00
54270;BME280;40181;51.560;13.000;2023-02-13T12:05:14;102889.13;;;6.91;100.00
54270;BME280;40181;51.560;13.000;2023-02-13T12:07:45;102884.72;;;6.90;100.00
54270;BME280;40181;51.560;13.000;2023-02-13T12:10:17;102879.66;;;6.67;100.00
54270;BME280;40181;51.560;13.000;2023-02-13T12:12:53;102872.44;;;6.62;100.00
54270;BME280;40181;51.560;13.000;2023-02-13T12:15:24;102885.31;;;6.73;100.00
54270;BME280;40181;51.560;13.000;2023-02-13T12:18:02;102880.28;;;6.76;100.00
54270;BME280;40181;51.560;13.000;2023-02-13T12:20:47;102861.50;;;6.68;100.00
54270;BME280;40181;51.560;13.000;2023-02-13T12:23:29;102854.66;;;6.70;100.00
54270;BME280;40181;51.560;13.000;2023-02-13T12:26:12;102856.66;;;6.74;100.00
54270;BME280;40181;51.560;13.000;2023-02-13T12:29:06;102858.06;;;6.69;100.00
54270;BME280;40181;51.560;13.000;2023-02-13T12:32:03;102870.91;;;6.66;100.00
54270;BME280;40181;51.560;13.000;2023-02-13T12:35:13;102855.88;;;6.75;100.00
54270;BME280;40181;51.560;13.000;2023-02-13T12:38:03;102856.38;;;6.83;100.00
54270;BME280;40181;51.560;13.000;2023-02-13T12:40:55;102865.06;;;6.57;100.00
54270;BME280;40181;51.560;13.000;2023-02-13T12:43:56;102851.44;;;6.61;100.00
54270;BME280;40181;51.560;13.000;2023-02-13T12:46:39;102854.13;;;6.49;100.00
54270;BME280;40181;51.560;13.000;2023-02-13T12:49:35;102859.53;;;6.39;100.00
54270;BME280;40181;51.560;13.000;2023-02-13T12:52:34;102860.06;;;6.60;100.00
54270;BME280;40181;51.560;13.000;2023-02-13T12:55:24;102859.94;;;6.58;100.00
54270;BME280;40181;51.560;13.000;2023-02-13T12:58:17;102851.88;;;6.42;100.00
54270;BME280;40181;51.560;13.000;2023-02-13T13:01:02;102852.22;;;6.60;100.00
54270;BME280;40181;51.560;13.000;2023-02-13T13:03:46;102845.59;;;6.65;100.00
54270;BME280;40181;51.560;13.000;2023-02-13T13:06:33;102843.09;;;6.67;100.00
54270;BME280;40181;51.560;13.000;2023-02-13T13:09:35;102850.31;;;6.71;100.00
54270;BME280;40181;51.560;13.000;2023-02-13T13:12:24;102844.63;;;6.76;100.00
54270;BME280;40181;51.560;13.000;2023-02-13T13:15:10;102854.34;;;6.66;100.00
54270;BME280;40181;51.560;13.000;2023-02-13T13:17:57;102855.84;;;6.62;100.00
54270;BME280;40181;51.560;13.000;2023-02-13T13:20:53;102841.56;;;6.84;100.00